Miccosukee, Florida
Current Conditions -  °F | °C
As of 2:53 AM on Friday 24 Oct 2014 (Local Time) from KTLH Reporting Station
Clear Clear  
Wind Chill: 51°   Ceiling: Unl
Heat Index: 51°   Visibility: 10mi
Dew Point: 44°   Wind: 0mph
Humidity: 77%   Direction: NA
Pressure: 30.02"   Gusts: NA
Location:  30.59°N, 84.04°W
Report Text: KTLH 240653Z AUTO 00000KT 10SM CLR 11/07 A3002 RMK AO2 SLP165 T01060067
Loading
Personal Weather Stations






























Interactive Weather Map
Tropical Storm Tracking
New forecast layout! Learn more

10-Day Weather Forecast

Advertisements
Track Severe Weather on mobile